Time;durP1;ratioP1;P1;durP2;ratioP2;P2;SDS_P1;SDS_P2;PMS_P1;PMS_P2;Temp;Humidity;BMP_temperature;BMP_pressure;BME280_temperature;BME280_humidity;BME280_pressure;Samples;Min_cycle;Max_cycle;Signal;HPM_P1;HPM_P2
2022/03/09 00:01:57;;;;;;;4.63;3.15;;;;;;;;;;4840470;29;20079;-78
2022/03/09 00:04:23;;;;;;;4.18;3.05;;;;;;;;;;4839864;29;20049;-79
2022/03/09 00:06:49;;;;;;;3.95;2.80;;;;;;;;;;4855706;29;20052;-79
2022/03/09 00:09:15;;;;;;;5.15;3.03;;;;;;;;;;4842559;29;20154;-78
2022/03/09 00:11:41;;;;;;;4.10;2.80;;;;;;;;;;4841518;29;20049;-78
2022/03/09 00:14:08;;;;;;;4.05;2.83;;;;;;;;;;4856512;29;20057;-77
2022/03/09 00:16:34;;;;;;;4.03;2.95;;;;;;;;;;4854194;29;20109;-78
2022/03/09 00:19:00;;;;;;;6.07;3.60;;;;;;;;;;4839706;29;20052;-76
2022/03/09 00:21:26;;;;;;;4.18;2.97;;;;;;;;;;4842323;29;20458;-78
2022/03/09 00:23:52;;;;;;;5.10;2.97;;;;;;;;;;4857638;29;20497;-78
2022/03/09 00:26:18;;;;;;;3.55;2.70;;;;;;;;;;4837302;29;20092;-76
2022/03/09 00:28:44;;;;;;;5.07;3.35;;;;;;;;;;4872771;29;20152;-76
2022/03/09 00:31:10;;;;;;;6.88;3.25;;;;;;;;;;4854855;29;20052;-75
2022/03/09 00:33:38;;;;;;;7.07;2.78;;;;;;;;;;4841963;29;20054;-73
2022/03/09 00:36:04;;;;;;;5.25;3.40;;;;;;;;;;4856088;29;20204;-73
2022/03/09 00:38:30;;;;;;;4.10;2.88;;;;;;;;;;4856583;29;20045;-74
2022/03/09 00:40:56;;;;;;;5.00;3.28;;;;;;;;;;4871426;29;20145;-73
2022/03/09 00:43:22;;;;;;;3.78;2.83;;;;;;;;;;4855124;29;20159;-73
2022/03/09 00:45:48;;;;;;;7.45;4.05;;;;;;;;;;4871141;29;20049;-73
2022/03/09 00:48:15;;;;;;;4.25;2.78;;;;;;;;;;4872934;29;20044;-73
2022/03/09 00:50:42;;;;;;;5.50;3.50;;;;;;;;;;4840676;29;20087;-74
2022/03/09 00:53:08;;;;;;;5.40;3.40;;;;;;;;;;4856354;29;20041;-74
2022/03/09 00:55:34;;;;;;;6.53;3.60;;;;;;;;;;4838754;29;20057;-74
2022/03/09 00:58:00;;;;;;;10.48;3.88;;;;;;;;;;4871037;29;20061;-73
2022/03/09 01:00:26;;;;;;;8.73;4.35;;;;;;;;;;4872431;29;20128;-73
2022/03/09 01:02:52;;;;;;;7.03;3.63;;;;;;;;;;4853554;29;20161;-73
2022/03/09 01:05:18;;;;;;;7.45;3.40;;;;;;;;;;4854867;29;20053;-73
2022/03/09 01:07:44;;;;;;;7.03;4.18;;;;;;;;;;4871587;29;20053;-73
2022/03/09 01:10:11;;;;;;;5.75;3.47;;;;;;;;;;4857178;29;20703;-72
2022/03/09 01:12:37;;;;;;;6.35;3.75;;;;;;;;;;4857046;29;20072;-72
2022/03/09 01:15:04;;;;;;;7.30;3.58;;;;;;;;;;4853345;29;20064;-72
2022/03/09 01:17:31;;;;;;;7.80;3.55;;;;;;;;;;4872789;29;20064;-72
2022/03/09 01:19:57;;;;;;;6.07;3.67;;;;;;;;;;4869837;29;20096;-73
2022/03/09 01:22:23;;;;;;;5.40;3.60;;;;;;;;;;4856823;29;20561;-73
2022/03/09 01:24:49;;;;;;;6.38;3.67;;;;;;;;;;4841732;29;20045;-72
2022/03/09 01:27:15;;;;;;;7.20;4.15;;;;;;;;;;4872304;29;20153;-73
2022/03/09 01:29:42;;;;;;;6.57;3.50;;;;;;;;;;4871579;29;20053;-72
2022/03/09 01:32:08;;;;;;;6.35;3.75;;;;;;;;;;4854719;29;20052;-71
2022/03/09 01:34:34;;;;;;;7.43;3.53;;;;;;;;;;4855239;29;20425;-73
2022/03/09 01:37:00;;;;;;;9.25;4.25;;;;;;;;;;4855027;29;20064;-73
2022/03/09 01:39:26;;;;;;;7.45;4.18;;;;;;;;;;4866940;29;20052;-72
2022/03/09 01:41:53;;;;;;;6.57;3.83;;;;;;;;;;4869051;29;20372;-73
2022/03/09 01:44:20;;;;;;;8.40;4.20;;;;;;;;;;4870421;29;20061;-73
2022/03/09 01:46:47;;;;;;;7.10;4.07;;;;;;;;;;4856505;29;20403;-73
2022/03/09 01:49:13;;;;;;;7.25;3.80;;;;;;;;;;4856364;29;20530;-73
2022/03/09 01:51:41;;;;;;;6.95;4.28;;;;;;;;;;4855175;29;20469;-73
2022/03/09 01:54:07;;;;;;;5.65;3.92;;;;;;;;;;4851495;29;20817;-73
2022/03/09 01:56:33;;;;;;;7.03;4.30;;;;;;;;;;4868516;29;20072;-73
2022/03/09 01:59:03;;;;;;;6.75;4.22;;;;;;;;;;4855960;29;20064;-73
2022/03/09 02:01:29;;;;;;;8.15;4.47;;;;;;;;;;4871679;29;20051;-73
2022/03/09 02:03:56;;;;;;;11.13;3.97;;;;;;;;;;4870421;29;20417;-74
2022/03/09 02:06:22;;;;;;;6.68;3.95;;;;;;;;;;4868644;29;20052;-73
2022/03/09 02:11:34;;;;;;;8.52;4.65;;;;;;;;;;4872928;29;20064;-73
2022/03/09 02:14:00;;;;;;;8.80;4.32;;;;;;;;;;4853126;29;20128;-73
2022/03/09 02:16:26;;;;;;;6.28;4.20;;;;;;;;;;4871669;29;20071;-73
2022/03/09 02:18:52;;;;;;;13.32;4.65;;;;;;;;;;4869342;29;20050;-73
2022/03/09 02:21:19;;;;;;;7.10;4.80;;;;;;;;;;4870592;29;20048;-74
2022/03/09 02:23:46;;;;;;;7.07;4.30;;;;;;;;;;4871190;29;20070;-73
2022/03/09 02:26:12;;;;;;;9.73;5.13;;;;;;;;;;4871585;29;20580;-73
2022/03/09 02:28:39;;;;;;;5.93;4.38;;;;;;;;;;4853784;29;20057;-73
2022/03/09 02:31:05;;;;;;;7.93;5.13;;;;;;;;;;4855887;29;20048;-72
2022/03/09 02:33:31;;;;;;;8.23;4.82;;;;;;;;;;4870973;29;20053;-73
2022/03/09 02:35:57;;;;;;;7.65;4.45;;;;;;;;;;4870489;29;20049;-73
2022/03/09 02:38:23;;;;;;;6.97;4.40;;;;;;;;;;4854365;29;20057;-73
2022/03/09 02:40:49;;;;;;;7.38;5.63;;;;;;;;;;4853488;29;20125;-73
2022/03/09 02:43:16;;;;;;;7.75;4.93;;;;;;;;;;4851607;29;20053;-74
2022/03/09 02:45:42;;;;;;;9.77;4.68;;;;;;;;;;4854874;29;20280;-73
2022/03/09 02:48:08;;;;;;;9.63;4.78;;;;;;;;;;4872601;29;20485;-73
2022/03/09 02:50:34;;;;;;;8.00;4.97;;;;;;;;;;4868501;29;20501;-73
2022/03/09 02:53:00;;;;;;;10.52;5.57;;;;;;;;;;4856009;29;20472;-74
2022/03/09 02:55:26;;;;;;;7.85;4.65;;;;;;;;;;4854036;29;20338;-73
2022/03/09 02:57:52;;;;;;;7.65;4.97;;;;;;;;;;4875117;29;20061;-73
2022/03/09 03:00:18;;;;;;;9.20;5.47;;;;;;;;;;4857142;29;20061;-73
2022/03/09 03:02:44;;;;;;;8.43;5.18;;;;;;;;;;4856803;29;20046;-73
2022/03/09 03:05:10;;;;;;;7.85;4.63;;;;;;;;;;4875663;29;20054;-73
2022/03/09 03:07:37;;;;;;;9.23;5.43;;;;;;;;;;4858935;29;20052;-73
2022/03/09 03:10:03;;;;;;;7.07;5.13;;;;;;;;;;4873645;29;20822;-73
2022/03/09 03:12:30;;;;;;;8.20;5.38;;;;;;;;;;4855466;29;20057;-72
2022/03/09 03:14:56;;;;;;;10.32;5.50;;;;;;;;;;4857490;29;20094;-73
2022/03/09 03:17:22;;;;;;;7.72;4.85;;;;;;;;;;4873295;29;20152;-73
2022/03/09 03:19:48;;;;;;;11.98;6.68;;;;;;;;;;4842754;29;20477;-73
2022/03/09 03:22:14;;;;;;;9.02;5.13;;;;;;;;;;4857972;29;20132;-72
2022/03/09 03:24:40;;;;;;;8.98;5.50;;;;;;;;;;4872052;29;20052;-73
2022/03/09 03:27:06;;;;;;;8.25;5.20;;;;;;;;;;4853317;29;20037;-74
2022/03/09 03:29:32;;;;;;;8.02;5.13;;;;;;;;;;4855366;29;20048;-74
2022/03/09 03:31:58;;;;;;;11.40;5.50;;;;;;;;;;4858287;29;20510;-73
2022/03/09 03:34:24;;;;;;;10.07;5.32;;;;;;;;;;4856105;29;20054;-74
2022/03/09 03:36:50;;;;;;;8.35;5.03;;;;;;;;;;4856605;29;20232;-74
2022/03/09 03:39:17;;;;;;;8.32;5.03;;;;;;;;;;4854665;29;20144;-75
2022/03/09 03:41:43;;;;;;;7.60;5.50;;;;;;;;;;4858853;29;20045;-72
2022/03/09 03:44:09;;;;;;;11.57;5.38;;;;;;;;;;4874776;29;20061;-71
2022/03/09 03:46:35;;;;;;;8.70;5.20;;;;;;;;;;4873436;29;20105;-73
2022/03/09 03:49:01;;;;;;;10.15;5.85;;;;;;;;;;4828425;29;20382;-73
2022/03/09 03:51:27;;;;;;;10.30;5.82;;;;;;;;;;4855719;29;20139;-72
2022/03/09 03:53:53;;;;;;;11.18;5.75;;;;;;;;;;4872216;29;20049;-72
2022/03/09 03:56:19;;;;;;;11.60;6.35;;;;;;;;;;4854539;29;20346;-73
2022/03/09 03:58:46;;;;;;;10.27;5.68;;;;;;;;;;4875549;29;20037;-73
2022/03/09 04:01:12;;;;;;;8.35;5.95;;;;;;;;;;4873380;29;20076;-74
2022/03/09 04:03:38;;;;;;;8.65;5.43;;;;;;;;;;4855782;29;20063;-73
2022/03/09 04:06:04;;;;;;;10.98;5.68;;;;;;;;;;4870798;29;20084;-73
2022/03/09 04:08:30;;;;;;;10.80;5.95;;;;;;;;;;4840592;29;20041;-74
2022/03/09 04:10:56;;;;;;;9.25;5.93;;;;;;;;;;4874915;29;20409;-74
2022/03/09 04:13:22;;;;;;;9.43;5.43;;;;;;;;;;4871555;29;20103;-73
2022/03/09 04:15:48;;;;;;;11.52;6.35;;;;;;;;;;4870007;29;20057;-73
2022/03/09 04:18:14;;;;;;;9.50;5.95;;;;;;;;;;4874271;29;20045;-74
2022/03/09 04:20:40;;;;;;;9.20;5.75;;;;;;;;;;4873948;29;20085;-74
2022/03/09 04:23:10;;;;;;;11.52;6.05;;;;;;;;;;4873822;29;20084;-74
2022/03/09 04:25:39;;;;;;;11.77;5.55;;;;;;;;;;4851570;29;20049;-73
2022/03/09 04:28:05;;;;;;;9.73;6.45;;;;;;;;;;4855573;29;20063;-74
2022/03/09 04:30:32;;;;;;;11.98;5.97;;;;;;;;;;4856522;29;20076;-74
2022/03/09 04:32:58;;;;;;;11.30;6.15;;;;;;;;;;4856578;29;20412;-74
2022/03/09 04:35:25;;;;;;;9.15;6.43;;;;;;;;;;4871040;29;20506;-74
2022/03/09 04:37:51;;;;;;;9.57;6.53;;;;;;;;;;4855557;29;20052;-74
2022/03/09 04:40:17;;;;;;;10.10;6.20;;;;;;;;;;4871096;29;20072;-74
2022/03/09 04:42:43;;;;;;;11.80;6.82;;;;;;;;;;4873331;29;20044;-73
2022/03/09 04:45:10;;;;;;;12.88;6.57;;;;;;;;;;4857097;29;20045;-74
2022/03/09 04:47:36;;;;;;;12.40;6.47;;;;;;;;;;4856879;29;20050;-74
2022/03/09 04:50:02;;;;;;;10.73;6.32;;;;;;;;;;4856536;29;20637;-73
2022/03/09 04:52:28;;;;;;;10.63;6.53;;;;;;;;;;4841647;29;20045;-74
2022/03/09 04:54:54;;;;;;;9.95;6.35;;;;;;;;;;4858265;29;20061;-74
2022/03/09 04:57:20;;;;;;;10.70;6.55;;;;;;;;;;4874172;29;20054;-73
2022/03/09 04:59:46;;;;;;;11.45;6.85;;;;;;;;;;4857226;29;20391;-73
2022/03/09 05:02:12;;;;;;;10.80;6.82;;;;;;;;;;4872457;29;20049;-74
2022/03/09 05:04:38;;;;;;;10.77;5.95;;;;;;;;;;4870461;29;20094;-73
2022/03/09 05:07:04;;;;;;;10.25;7.10;;;;;;;;;;4853125;29;20052;-73
2022/03/09 05:09:30;;;;;;;12.13;7.15;;;;;;;;;;4875230;29;20152;-73
2022/03/09 05:11:56;;;;;;;10.52;6.65;;;;;;;;;;4857326;29;20484;-73
2022/03/09 05:14:22;;;;;;;11.50;6.93;;;;;;;;;;4839677;29;20057;-72
2022/03/09 05:16:48;;;;;;;11.13;6.97;;;;;;;;;;4836532;29;20511;-72
2022/03/09 05:19:14;;;;;;;12.38;7.32;;;;;;;;;;4854859;29;20493;-73
2022/03/09 05:21:41;;;;;;;9.75;6.93;;;;;;;;;;4837701;29;20492;-73
2022/03/09 05:24:07;;;;;;;12.95;7.00;;;;;;;;;;4833283;29;20390;-73
2022/03/09 05:26:33;;;;;;;9.90;6.30;;;;;;;;;;4838437;29;20045;-73
2022/03/09 05:28:59;;;;;;;10.40;6.93;;;;;;;;;;4853742;29;20064;-73
2022/03/09 05:31:25;;;;;;;11.82;6.88;;;;;;;;;;4834978;29;20052;-73
2022/03/09 05:33:51;;;;;;;13.05;6.90;;;;;;;;;;4839716;29;20059;-73
2022/03/09 05:36:17;;;;;;;13.27;6.88;;;;;;;;;;4839217;29;20060;-72
2022/03/09 05:38:43;;;;;;;10.23;6.70;;;;;;;;;;4852720;29;20071;-73
2022/03/09 05:41:09;;;;;;;12.40;7.00;;;;;;;;;;4853415;29;20041;-73
2022/03/09 05:43:36;;;;;;;10.35;6.47;;;;;;;;;;4835899;29;20497;-74
2022/03/09 05:46:02;;;;;;;10.43;6.70;;;;;;;;;;4824280;29;20057;-73
2022/03/09 05:48:28;;;;;;;10.43;6.53;;;;;;;;;;4853478;29;20045;-73
2022/03/09 05:50:54;;;;;;;10.43;7.18;;;;;;;;;;4822535;29;20525;-74
2022/03/09 05:53:20;;;;;;;14.00;7.10;;;;;;;;;;4838625;29;20152;-73
2022/03/09 05:55:46;;;;;;;11.98;7.10;;;;;;;;;;4854169;29;20153;-74
2022/03/09 05:58:12;;;;;;;12.63;7.05;;;;;;;;;;4856343;29;20049;-81
2022/03/09 06:00:38;;;;;;;12.98;7.55;;;;;;;;;;4824304;29;20057;-78
2022/03/09 06:03:04;;;;;;;14.57;6.78;;;;;;;;;;4823040;29;20049;-79
2022/03/09 06:05:30;;;;;;;11.45;6.80;;;;;;;;;;4824096;29;20042;-79
2022/03/09 06:07:56;;;;;;;11.65;7.93;;;;;;;;;;4823870;29;20113;-76
2022/03/09 06:10:22;;;;;;;11.43;6.93;;;;;;;;;;4838650;29;20068;-76
2022/03/09 06:12:48;;;;;;;12.23;7.47;;;;;;;;;;4838565;29;20550;-75
2022/03/09 06:15:14;;;;;;;14.43;6.88;;;;;;;;;;4863185;29;20230;-76
2022/03/09 06:17:45;;;;;;;12.85;7.47;;;;;;;;;;4853804;29;20085;-75
2022/03/09 06:20:11;;;;;;;13.50;7.15;;;;;;;;;;4853300;29;20065;-78
2022/03/09 06:22:37;;;;;;;13.73;7.05;;;;;;;;;;4855776;29;20162;-74
2022/03/09 06:25:04;;;;;;;12.45;7.90;;;;;;;;;;4874495;29;20057;-73
2022/03/09 06:27:38;;;;;;;13.70;7.65;;;;;;;;;;4871858;29;20112;-74
2022/03/09 06:30:05;;;;;;;13.38;7.82;;;;;;;;;;4854570;29;20057;-74
2022/03/09 06:32:31;;;;;;;11.18;6.97;;;;;;;;;;4856384;29;20132;-73
2022/03/09 06:34:57;;;;;;;12.23;7.50;;;;;;;;;;4862235;29;20041;-74
2022/03/09 06:37:23;;;;;;;12.43;6.25;;;;;;;;;;4876284;29;20113;-74
2022/03/09 06:39:49;;;;;;;11.90;7.10;;;;;;;;;;4861553;29;20369;-74
2022/03/09 06:42:15;;;;;;;12.65;7.10;;;;;;;;;;4861424;29;21000;-75
2022/03/09 06:44:41;;;;;;;11.93;8.25;;;;;;;;;;4878270;29;20045;-75
2022/03/09 06:47:07;;;;;;;10.50;6.95;;;;;;;;;;4879108;29;20053;-74
2022/03/09 06:49:33;;;;;;;10.00;6.90;;;;;;;;;;4861648;29;20429;-75
2022/03/09 06:52:00;;;;;;;12.13;7.20;;;;;;;;;;4862011;29;20111;-75
2022/03/09 06:54:27;;;;;;;10.15;7.25;;;;;;;;;;4878932;29;20052;-75
2022/03/09 06:56:53;;;;;;;;;;;;;;;;;;4862484;29;20084;-75
2022/03/09 06:59:19;;;;;;;12.20;6.70;;;;;;;;;;4862240;29;20427;-75
2022/03/09 07:01:45;;;;;;;19.92;7.53;;;;;;;;;;4878522;29;20401;-75
2022/03/09 07:04:11;;;;;;;11.30;6.70;;;;;;;;;;4861779;29;20084;-75
2022/03/09 07:06:37;;;;;;;9.95;6.35;;;;;;;;;;4860848;29;20045;-75
2022/03/09 07:09:03;;;;;;;10.18;8.00;;;;;;;;;;4876954;29;20447;-75
2022/03/09 07:11:29;;;;;;;12.32;8.07;;;;;;;;;;4859777;29;20451;-76
2022/03/09 07:13:56;;;;;;;9.82;8.05;;;;;;;;;;4872078;29;20533;-75
2022/03/09 07:16:22;;;;;;;12.20;7.88;;;;;;;;;;4857843;29;20436;-74
2022/03/09 07:18:48;;;;;;;10.95;8.25;;;;;;;;;;4859328;29;20515;-74
2022/03/09 07:21:14;;;;;;;10.30;7.28;;;;;;;;;;4858670;29;20049;-74
2022/03/09 07:23:40;;;;;;;;;;;;;;;;;;4874506;29;20056;-75
2022/03/09 07:26:06;;;;;;;;;;;;;;;;;;4877212;29;19923;-74
2022/03/09 07:28:32;;;;;;;;;;;;;;;;;;4878495;29;20026;-73
2022/03/09 07:30:58;;;;;;;;;;;;;;;;;;4879235;29;19928;-74
2022/03/09 07:33:24;;;;;;;;;;;;;;;;;;4861103;29;19931;-74
2022/03/09 07:35:50;;;;;;;;;;;;;;;;;;4878468;29;19924;-74
2022/03/09 07:38:16;;;;;;;;;;;;;;;;;;4862487;29;19940;-75
2022/03/09 07:40:42;;;;;;;;;;;;;;;;;;4874557;29;20002;-73
2022/03/09 07:43:08;;;;;;;;;;;;;;;;;;4872460;29;20059;-72
2022/03/09 07:45:34;;;;;;;;;;;;;;;;;;4876270;29;20312;-72
2022/03/09 07:48:00;;;;;;;;;;;;;;;;;;4876932;29;19924;-73
2022/03/09 07:50:26;;;;;;;;;;;;;;;;;;4858333;29;19930;-73
2022/03/09 07:52:51;;;;;;;;;;;;;;;;;;4875495;29;20014;-74
2022/03/09 07:55:19;;;;;;;16.17;7.22;;;;;;;;;;4871941;29;19927;-73
2022/03/09 07:57:45;;;;;;;9.90;6.50;;;;;;;;;;4872625;29;20048;-74
2022/03/09 08:00:11;;;;;;;8.70;7.20;;;;;;;;;;4853846;29;20450;-73
2022/03/09 08:02:37;;;;;;;10.70;7.80;;;;;;;;;;4865689;29;20500;-73
2022/03/09 08:05:04;;;;;;;9.23;7.23;;;;;;;;;;4869302;29;20532;-73
2022/03/09 08:07:30;;;;;;;11.13;7.60;;;;;;;;;;4866574;29;20436;-74
2022/03/09 08:09:57;;;;;;;9.68;7.32;;;;;;;;;;4869490;29;20446;-76
2022/03/09 08:12:23;;;;;;;11.80;7.50;;;;;;;;;;4868127;29;20452;-75
2022/03/09 08:14:49;;;;;;;13.63;7.88;;;;;;;;;;4835274;29;20778;-73
2022/03/09 08:17:15;;;;;;;11.50;7.65;;;;;;;;;;4834670;29;20450;-77
2022/03/09 08:19:41;;;;;;;9.93;7.35;;;;;;;;;;4833201;29;20449;-74
2022/03/09 08:22:08;;;;;;;11.90;8.30;;;;;;;;;;4833963;29;20457;-75
2022/03/09 08:24:34;;;;;;;8.68;7.32;;;;;;;;;;4835886;29;20445;-74
2022/03/09 08:27:00;;;;;;;10.55;7.00;;;;;;;;;;4833062;29;20944;-76
2022/03/09 08:29:26;;;;;;;9.50;7.15;;;;;;;;;;4851368;29;20442;-75
2022/03/09 08:31:53;;;;;;;11.55;7.50;;;;;;;;;;4850693;29;20444;-75
2022/03/09 08:34:19;;;;;;;10.02;7.35;;;;;;;;;;4819595;29;20473;-76
2022/03/09 08:36:45;;;;;;;10.73;7.20;;;;;;;;;;4833005;29;20998;-76
2022/03/09 08:39:11;;;;;;;9.68;6.95;;;;;;;;;;4847601;29;20437;-75
2022/03/09 08:41:37;;;;;;;10.27;6.73;;;;;;;;;;4836634;29;20532;-75
2022/03/09 08:44:03;;;;;;;10.40;7.03;;;;;;;;;;4856117;29;20437;-75
2022/03/09 08:46:29;;;;;;;11.20;7.03;;;;;;;;;;4837757;29;20438;-75
2022/03/09 08:48:56;;;;;;;10.25;6.97;;;;;;;;;;4830561;29;20434;-75
2022/03/09 08:51:22;;;;;;;9.10;6.88;;;;;;;;;;4831528;29;20798;-74
2022/03/09 08:53:49;;;;;;;8.02;7.03;;;;;;;;;;4834218;29;20585;-74
2022/03/09 08:56:16;;;;;;;10.82;7.28;;;;;;;;;;4829847;29;20458;-75
2022/03/09 08:58:42;;;;;;;9.35;7.30;;;;;;;;;;4836790;29;20438;-75
2022/03/09 09:01:08;;;;;;;8.63;7.00;;;;;;;;;;4853677;29;20438;-75
2022/03/09 09:03:34;;;;;;;9.13;6.70;;;;;;;;;;4853148;29;20436;-79
2022/03/09 09:06:01;;;;;;;9.10;6.88;;;;;;;;;;4852128;29;20449;-77
2022/03/09 09:08:27;;;;;;;7.50;6.72;;;;;;;;;;4816737;29;20480;-79
2022/03/09 09:10:54;;;;;;;9.07;6.93;;;;;;;;;;4835863;29;20450;-78
2022/03/09 09:13:20;;;;;;;10.27;6.20;;;;;;;;;;4840001;29;21390;-76
2022/03/09 09:15:47;;;;;;;9.27;7.18;;;;;;;;;;4840929;29;20753;-78
2022/03/09 09:18:14;;;;;;;8.55;6.85;;;;;;;;;;4853143;29;20444;-78
2022/03/09 09:20:40;;;;;;;10.33;6.70;;;;;;;;;;4843006;29;20440;-77
2022/03/09 09:23:06;;;;;;;9.48;7.03;;;;;;;;;;4849756;29;20519;-80
2022/03/09 09:25:32;;;;;;;9.18;6.75;;;;;;;;;;4849826;29;20440;-78
2022/03/09 09:27:59;;;;;;;10.63;7.68;;;;;;;;;;4840839;29;20448;-77
2022/03/09 09:30:30;;;;;;;9.63;7.10;;;;;;;;;;4854365;29;20953;-77
2022/03/09 09:32:57;;;;;;;8.68;7.07;;;;;;;;;;4833824;29;20444;-77
2022/03/09 09:35:23;;;;;;;7.78;6.72;;;;;;;;;;4846486;29;20445;-76
2022/03/09 09:37:50;;;;;;;8.70;7.07;;;;;;;;;;4841032;29;20460;-76
2022/03/09 09:40:16;;;;;;;8.23;6.88;;;;;;;;;;4851546;29;20445;-76
2022/03/09 09:42:43;;;;;;;9.52;7.00;;;;;;;;;;4837690;29;20452;-73
2022/03/09 09:45:10;;;;;;;8.05;6.90;;;;;;;;;;4863735;29;20432;-74
2022/03/09 09:47:37;;;;;;;9.40;7.20;;;;;;;;;;4868901;29;20484;-73
2022/03/09 09:50:09;;;;;;;9.02;7.28;;;;;;;;;;4864964;29;21189;-73
2022/03/09 09:52:36;;;;;;;10.18;7.10;;;;;;;;;;4857671;29;20547;-75
2022/03/09 09:55:03;;;;;;;9.45;7.00;;;;;;;;;;4831102;29;20451;-75
2022/03/09 09:57:30;;;;;;;10.82;7.60;;;;;;;;;;4850328;29;20523;-76
2022/03/09 09:59:57;;;;;;;11.43;7.53;;;;;;;;;;4847075;29;20543;-82
2022/03/09 10:02:23;;;;;;;9.43;7.60;;;;;;;;;;4849023;29;20448;-80
2022/03/09 10:04:50;;;;;;;9.93;7.28;;;;;;;;;;4849682;29;20443;-79
2022/03/09 10:07:17;;;;;;;9.10;7.15;;;;;;;;;;4852128;29;20441;-80
2022/03/09 10:09:43;;;;;;;11.27;7.40;;;;;;;;;;4853413;29;20446;-80
2022/03/09 10:12:11;;;;;;;11.37;7.40;;;;;;;;;;4851968;29;20760;-82
2022/03/09 10:14:51;;;;;;;11.70;6.80;;;;;;;;;;4833213;29;20511;-81
2022/03/09 10:17:18;;;;;;;13.40;7.50;;;;;;;;;;4838424;29;20462;-81
2022/03/09 10:19:46;;;;;;;9.88;7.28;;;;;;;;;;4857786;29;20508;-81
2022/03/09 10:22:22;;;;;;;8.80;7.43;;;;;;;;;;4848285;29;20452;-82
2022/03/09 10:24:49;;;;;;;12.90;7.53;;;;;;;;;;4850542;29;20959;-82
2022/03/09 10:27:35;;;;;;;12.82;7.28;;;;;;;;;;4852651;29;20048;-81
2022/03/09 10:30:03;;;;;;;11.35;7.13;;;;;;;;;;4834875;29;20461;-77
2022/03/09 10:32:48;;;;;;;12.15;7.43;;;;;;;;;;4871172;29;20041;-80
2022/03/09 10:35:16;;;;;;;11.07;6.78;;;;;;;;;;4850477;29;20148;-76
2022/03/09 10:37:43;;;;;;;10.93;6.93;;;;;;;;;;4865144;29;20513;-76
2022/03/09 10:40:13;;;;;;;12.35;6.95;;;;;;;;;;4850880;29;20145;-75
2022/03/09 10:42:40;;;;;;;11.57;7.38;;;;;;;;;;4865606;29;20629;-75
2022/03/09 10:45:09;;;;;;;10.88;7.30;;;;;;;;;;4857460;29;20714;-78
2022/03/09 10:47:41;;;;;;;9.95;6.72;;;;;;;;;;4856820;29;20143;-77
2022/03/09 10:50:07;;;;;;;11.48;7.07;;;;;;;;;;4837787;29;20041;-76
2022/03/09 10:52:43;;;;;;;9.00;6.90;;;;;;;;;;4848183;29;20178;-78
2022/03/09 10:55:28;;;;;;;10.98;7.15;;;;;;;;;;4848811;29;20053;-80
2022/03/09 10:58:06;;;;;;;13.23;7.38;;;;;;;;;;4852701;29;20084;-80
2022/03/09 11:00:40;;;;;;;11.25;7.43;;;;;;;;;;4852609;29;20464;-78
2022/03/09 11:03:07;;;;;;;8.75;6.78;;;;;;;;;;4853453;29;20109;-77
2022/03/09 11:05:34;;;;;;;10.35;7.38;;;;;;;;;;4838820;29;20480;-78
2022/03/09 11:08:01;;;;;;;14.60;7.85;;;;;;;;;;4855134;29;20049;-75
2022/03/09 11:10:28;;;;;;;11.38;7.05;;;;;;;;;;4871794;29;20169;-77
2022/03/09 11:12:55;;;;;;;10.00;7.22;;;;;;;;;;4856948;29;20060;-76
2022/03/09 11:15:23;;;;;;;8.98;6.80;;;;;;;;;;4855805;29;20065;-78
2022/03/09 11:17:49;;;;;;;9.05;7.07;;;;;;;;;;4851264;29;20053;-74
2022/03/09 11:20:16;;;;;;;12.10;6.95;;;;;;;;;;4859534;29;20128;-79
2022/03/09 11:22:43;;;;;;;9.68;6.88;;;;;;;;;;4874437;29;20076;-76
2022/03/09 11:25:09;;;;;;;10.98;7.40;;;;;;;;;;4857984;29;20064;-75
2022/03/09 11:27:42;;;;;;;9.65;7.00;;;;;;;;;;4843097;29;20052;-78
2022/03/09 11:30:40;;;;;;;12.40;7.22;;;;;;;;;;4872912;29;20473;-79
2022/03/09 11:33:26;;;;;;;11.73;7.18;;;;;;;;;;4826755;29;20061;-77
2022/03/09 11:35:53;;;;;;;10.90;7.10;;;;;;;;;;4857678;29;20089;-80
2022/03/09 11:38:39;;;;;;;10.57;6.95;;;;;;;;;;4830411;29;20152;-80
2022/03/09 11:41:17;;;;;;;13.45;7.20;;;;;;;;;;4853567;29;20061;-82
2022/03/09 11:43:43;;;;;;;;;;;;;;;;;;4857257;29;20045;-79
2022/03/09 11:46:09;;;;;;;;;;;;;;;;;;4844539;29;19927;-78
2022/03/09 11:48:35;;;;;;;;;;;;;;;;;;4859224;29;20360;-81
2022/03/09 11:51:03;;;;;;;;;;;;;;;;;;4862806;29;19927;-83
2022/03/09 11:53:29;;;;;;;;;;;;;;;;;;4859887;29;19924;-83
2022/03/09 11:55:55;;;;;;;;;;;;;;;;;;4858284;29;19923;-82
2022/03/09 11:58:21;;;;;;;;;;;;;;;;;;4858957;29;19930;-79
2022/03/09 12:00:47;;;;;;;;;;;;;;;;;;4844400;29;20011;-85
2022/03/09 12:03:13;;;;;;;;;;;;;;;;;;4857612;29;20014;-81
2022/03/09 12:05:39;;;;;;;;;;;;;;;;;;4855294;29;19931;-85
2022/03/09 12:08:05;;;;;;;;;;;;;;;;;;4845276;29;19977;-78
2022/03/09 12:10:31;;;;;;;;;;;;;;;;;;4857843;29;19991;-80
2022/03/09 12:12:57;;;;;;;;;;;;;;;;;;4843036;29;19924;-79
2022/03/09 12:15:22;;;;;;;;;;;;;;;;;;4856460;29;19930;-77
2022/03/09 12:17:48;;;;;;;;;;;;;;;;;;4857691;29;20310;-76
2022/03/09 12:20:14;;;;;;;;;;;;;;;;;;4858758;29;20175;-81
2022/03/09 12:22:40;;;;;;;;;;;;;;;;;;4839521;29;20016;-80
2022/03/09 12:25:06;;;;;;;;;;;;;;;;;;4855018;29;19932;-79
2022/03/09 12:27:33;;;;;;;;;;;;;;;;;;4859043;29;19931;-81
2022/03/09 12:29:59;;;;;;;;;;;;;;;;;;4841526;29;19931;-80
2022/03/09 12:32:25;;;;;;;;;;;;;;;;;;4839947;29;19928;-79
2022/03/09 12:34:51;;;;;;;;;;;;;;;;;;4858974;29;20271;-77
2022/03/09 12:37:18;;;;;;;;;;;;;;;;;;4841564;29;20370;-77
2022/03/09 12:39:44;;;;;;;;;;;;;;;;;;4842813;29;19923;-77
2022/03/09 12:42:10;;;;;;;;;;;;;;;;;;4858333;29;19924;-80
2022/03/09 12:44:36;;;;;;;;;;;;;;;;;;4856719;29;19924;-76
2022/03/09 12:47:03;;;;;;;;;;;;;;;;;;4855445;29;19963;-74
2022/03/09 12:49:29;;;;;;;;;;;;;;;;;;4874193;29;19924;-78
2022/03/09 12:51:55;;;;;;;;;;;;;;;;;;4871970;29;19928;-76
2022/03/09 12:54:21;;;;;;;;;;;;;;;;;;4854078;29;19924;-75
2022/03/09 12:56:49;;;;;;;;;;;;;;;;;;4855057;29;19931;-75
2022/03/09 12:59:15;;;;;;;;;;;;;;;;;;4859423;29;20050;-76
2022/03/09 13:01:41;;;;;;;;;;;;;;;;;;4856790;29;20388;-75
2022/03/09 13:04:07;;;;;;;;;;;;;;;;;;4854467;29;19924;-76
2022/03/09 13:06:33;;;;;;;;;;;;;;;;;;4856293;29;20390;-78
2022/03/09 13:08:59;;;;;;;;;;;;;;;;;;4855315;29;19923;-79
2022/03/09 13:11:26;;;;;;;;;;;;;;;;;;4854007;29;19923;-79
2022/03/09 13:13:52;;;;;;;;;;;;;;;;;;4853915;29;19939;-79
2022/03/09 13:16:18;;;;;;;;;;;;;;;;;;4854511;29;19931;-80
2022/03/09 13:18:43;;;;;;;;;;;;;;;;;;4853920;29;20390;-77
2022/03/09 13:21:09;;;;;;;;;;;;;;;;;;4868234;29;20348;-76
2022/03/09 13:23:37;;;;;;;;;;;;;;;;;;4852413;29;20023;-77
2022/03/09 13:26:03;;;;;;;;;;;;;;;;;;4853653;29;19942;-76
2022/03/09 13:28:29;;;;;;;;;;;;;;;;;;4851650;29;19928;-75
2022/03/09 13:30:55;;;;;;;;;;;;;;;;;;4871254;29;19923;-75
2022/03/09 13:33:21;;;;;;;;;;;;;;;;;;4853946;29;20367;-76
2022/03/09 13:35:48;;;;;;;;;;;;;;;;;;4855889;29;19931;-75
2022/03/09 13:38:14;;;;;;;;;;;;;;;;;;4855251;29;19924;-79
2022/03/09 13:40:40;;;;;;;;;;;;;;;;;;4852635;29;19944;-77
2022/03/09 13:43:08;;;;;;;;;;;;;;;;;;4856511;29;19932;-78
2022/03/09 13:45:38;;;;;;;;;;;;;;;;;;4838235;29;20299;-76
2022/03/09 13:48:04;;;;;;;;;;;;;;;;;;4856141;29;19998;-76
2022/03/09 13:50:30;;;;;;;;;;;;;;;;;;4841309;29;20416;-76
2022/03/09 13:52:56;;;;;;;;;;;;;;;;;;4855461;29;20407;-77
2022/03/09 13:55:23;;;;;;;;;;;;;;;;;;4854691;29;20392;-77
2022/03/09 13:57:48;;;;;;;;;;;;;;;;;;4855860;29;19927;-77
2022/03/09 14:00:15;;;;;;;;;;;;;;;;;;4837484;29;19932;-78
2022/03/09 14:02:41;;;;;;;;;;;;;;;;;;4842809;29;19928;-76
2022/03/09 14:05:07;;;;;;;;;;;;;;;;;;4857683;29;19927;-76
2022/03/09 14:07:34;;;;;;;;;;;;;;;;;;4852680;29;19927;-76
2022/03/09 14:10:00;;;;;;;;;;;;;;;;;;4856274;29;19932;-73
2022/03/09 14:12:25;;;;;;;;;;;;;;;;;;4855043;29;19950;-75
2022/03/09 14:14:51;;;;;;;;;;;;;;;;;;4852597;29;20038;-76
2022/03/09 14:17:17;;;;;;;;;;;;;;;;;;4869625;29;19924;-75
2022/03/09 14:19:43;;;;;;;;;;;;;;;;;;4852726;29;21730;-80
2022/03/09 14:22:09;;;;;;;;;;;;;;;;;;4851899;29;19924;-80
2022/03/09 14:24:35;;;;;;;;;;;;;;;;;;4839136;29;19930;-80
2022/03/09 14:27:01;;;;;;;;;;;;;;;;;;4850304;29;20031;-76
2022/03/09 14:29:30;;;;;;;;;;;;;;;;;;4837047;29;19931;-81
2022/03/09 14:31:56;;;;;;;;;;;;;;;;;;4850869;29;19944;-79
2022/03/09 14:34:23;;;;;;;;;;;;;;;;;;4854777;29;19928;-80
2022/03/09 14:36:49;;;;;;;;;;;;;;;;;;4856833;29;19972;-80
2022/03/09 14:39:15;;;;;;;;;;;;;;;;;;4855319;29;19928;-80
2022/03/09 14:41:41;;;;;;;;;;;;;;;;;;4857447;29;19924;-79
2022/03/09 14:44:07;;;;;;;;;;;;;;;;;;4854371;29;19939;-80
2022/03/09 14:46:33;;;;;;;;;;;;;;;;;;4852692;29;20429;-77
2022/03/09 14:48:59;;;;;;;;;;;;;;;;;;4856977;29;20261;-79
2022/03/09 14:51:25;;;;;;;;;;;;;;;;;;4838144;29;19924;-78
2022/03/09 14:53:52;;;;;;;;;;;;;;;;;;4855698;29;20251;-77
2022/03/09 14:56:18;;;;;;;;;;;;;;;;;;4839454;29;19946;-76
2022/03/09 14:58:45;;;;;;;;;;;;;;;;;;4857346;29;20353;-77
2022/03/09 15:01:11;;;;;;;;;;;;;;;;;;4842495;29;19930;-78
2022/03/09 15:03:37;;;;;;;;;;;;;;;;;;4860787;29;19923;-78
2022/03/09 15:06:03;;;;;;;;;;;;;;;;;;4845875;29;19935;-75
2022/03/09 15:08:29;;;;;;;;;;;;;;;;;;4858812;29;19924;-77